Time;durP1;ratioP1;P1;durP2;ratioP2;P2;SDS_P1;SDS_P2;PMS_P1;PMS_P2;Temp;Humidity;BMP_temperature;BMP_pressure;BME280_temperature;BME280_humidity;BME280_pressure;Samples;Min_cycle;Max_cycle;Signal;HPM_P1;HPM_P2
2022/10/01 00:02:00;;;;;;;;;21.50;19.50;;;;;13.35;78.25;99307.31;4967927;28;45454;-73
2022/10/01 00:04:26;;;;;;;;;19.50;16.00;;;;;13.34;78.30;99302.94;4971200;28;45479;-73
2022/10/01 00:06:52;;;;;;;;;24.75;23.00;;;;;13.33;78.20;99314.47;4975945;28;45363;-73
2022/10/01 00:09:17;;;;;;;;;27.25;24.50;;;;;13.32;78.36;99315.38;4974942;28;45288;-73
2022/10/01 00:11:43;;;;;;;;;29.67;28.33;;;;;13.31;77.95;99319.81;4974102;28;45933;-73
2022/10/01 00:14:09;;;;;;;;;28.00;24.67;;;;;13.32;77.93;99323.34;4991127;28;45913;-73
2022/10/01 00:16:35;;;;;;;;;29.75;27.00;;;;;13.30;78.03;99318.09;4976217;28;45336;-73
2022/10/01 00:19:00;;;;;;;;;27.50;26.25;;;;;13.31;77.74;99327.78;4974441;28;45967;-73
2022/10/01 00:21:29;;;;;;;;;32.00;29.00;;;;;13.31;77.76;99314.53;4975312;28;45454;-73
2022/10/01 00:23:58;;;;;;;;;31.67;29.00;;;;;13.30;77.59;99307.53;4975706;28;45809;-73
2022/10/01 00:26:26;;;;;;;;;25.75;24.50;;;;;13.31;77.97;99313.66;4975825;28;45434;-73
2022/10/01 00:28:54;;;;;;;;;26.25;23.75;;;;;13.29;78.29;99324.34;4973891;28;45419;-73
2022/10/01 00:31:20;;;;;;;;;25.00;22.75;;;;;13.27;78.66;99324.41;4964882;28;46423;-73
2022/10/01 00:33:45;;;;;;;;;21.00;19.75;;;;;13.28;78.65;99341.16;4975741;28;45424;-73
2022/10/01 00:36:11;;;;;;;;;19.25;17.50;;;;;13.27;79.21;99348.22;4975671;28;45384;-73
2022/10/01 00:38:39;;;;;;;;;20.25;20.25;;;;;13.27;78.98;99342.94;4990699;28;45424;-73
2022/10/01 00:41:05;;;;;;;;;21.25;20.25;;;;;13.25;79.64;99334.22;4979557;28;46323;-73
2022/10/01 00:43:35;;;;;;;;;20.75;20.00;;;;;13.26;79.32;99327.97;4975292;28;45613;-73
2022/10/01 00:46:26;;;;;;;;;19.00;16.25;;;;;13.24;79.35;99321.91;4975874;28;45283;-73
2022/10/01 00:48:57;;;;;;;;;17.25;15.25;;;;;13.24;79.33;99323.69;4975285;28;45538;-73
2022/10/01 00:51:28;;;;;;;;;16.50;13.75;;;;;13.23;79.48;99327.28;4973281;28;48145;-73
2022/10/01 00:54:01;;;;;;;;;15.00;13.00;;;;;13.23;79.23;99330.81;4967370;28;45494;-73
2022/10/01 00:56:27;;;;;;;;;15.00;13.00;;;;;13.23;79.66;99344.03;4956229;28;45382;-73
2022/10/01 00:58:54;;;;;;;;;23.00;14.75;;;;;13.23;79.63;99343.19;4979358;28;45504;-73
2022/10/01 01:01:21;;;;;;;;;16.00;14.50;;;;;13.21;79.66;99350.34;4955418;28;46519;-73
2022/10/01 01:03:46;;;;;;;;;16.75;15.50;;;;;13.20;79.28;99343.31;4956141;28;45332;-73
2022/10/01 01:06:12;;;;;;;;;17.00;14.00;;;;;13.17;79.49;99349.63;4986776;28;45458;-73
2022/10/01 01:08:38;;;;;;;;;14.00;14.00;;;;;13.16;79.33;99347.03;4974978;28;45608;-73
2022/10/01 01:11:13;;;;;;;;;16.75;15.00;;;;;13.16;79.75;99353.19;4974375;28;45454;-73
2022/10/01 01:13:54;;;;;;;;;17.00;16.00;;;;;13.14;79.16;99356.81;4966914;28;45371;-73
2022/10/01 01:16:37;;;;;;;;;17.00;15.50;;;;;13.09;79.48;99366.72;4975341;28;45439;-73
2022/10/01 01:19:24;;;;;;;;;16.00;15.50;;;;;13.01;79.74;99368.88;4989973;28;45422;-73
2022/10/01 01:21:57;;;;;;;;;15.00;14.00;;;;;12.93;80.42;99370.09;4978206;28;45449;-73
2022/10/01 01:24:41;;;;;;;;;17.25;17.25;;;;;12.87;80.39;99361.59;4993670;28;45389;-73
2022/10/01 01:27:15;;;;;;;;;15.00;15.00;;;;;12.83;80.52;99362.66;4978456;28;45423;-73
2022/10/01 01:29:51;;;;;;;;;17.75;16.00;;;;;12.80;80.99;99357.50;4978495;28;45314;-73
2022/10/01 01:32:24;;;;;;;;;21.00;20.00;;;;;12.80;80.71;99349.56;4978019;28;45460;-73
2022/10/01 01:34:54;;;;;;;;;19.50;17.25;;;;;12.79;80.79;99343.41;4978039;28;45351;-73
2022/10/01 01:37:25;;;;;;;;;16.50;15.25;;;;;12.78;80.81;99349.63;4978190;28;45438;-73
2022/10/01 01:39:55;;;;;;;;;16.75;14.75;;;;;12.77;81.17;99350.53;4981917;28;45413;-73
2022/10/01 01:42:28;;;;;;;;;17.25;16.75;;;;;12.78;81.11;99343.47;4977631;28;46457;-73
2022/10/01 01:44:57;;;;;;;;;17.00;16.00;;;;;12.75;81.17;99347.09;4978342;28;45430;-73
2022/10/01 01:47:30;;;;;;;;;18.25;16.00;;;;;12.73;81.84;99342.84;4978330;28;45300;-73
2022/10/01 01:49:57;;;;;;;;;18.50;16.75;;;;;12.71;81.85;99353.50;4976573;28;45783;-73
2022/10/01 01:52:23;;;;;;;;;18.50;15.75;;;;;12.71;82.16;99355.28;4977962;28;45566;-73
2022/10/01 01:54:50;;;;;;;;;16.25;15.00;;;;;12.67;82.21;99357.19;4978041;28;45443;-73
2022/10/01 01:57:18;;;;;;;;;21.50;17.50;;;;;12.66;82.38;99351.97;4978115;28;45165;-73
2022/10/01 01:59:45;;;;;;;;;17.25;15.25;;;;;12.64;82.48;99353.81;4977253;28;45481;-73
2022/10/01 02:02:22;;;;;;;;;12.00;12.00;;;;;12.59;82.78;99359.31;4977830;28;46215;-73
2022/10/01 02:04:53;;;;;;;;;13.00;12.00;;;;;12.56;82.81;99362.97;4977463;28;45404;-73
2022/10/01 02:07:21;;;;;;;;;18.75;17.75;;;;;12.54;83.01;99369.25;4977626;28;45443;-73
2022/10/01 02:09:50;;;;;;;;;15.75;15.00;;;;;12.51;83.33;99366.72;4977724;28;45303;-73
2022/10/01 02:12:29;;;;;;;;;17.75;14.75;;;;;12.48;83.22;99367.72;4977090;28;46108;-73
2022/10/01 02:15:12;;;;;;;;;14.00;14.00;;;;;12.47;83.50;99379.22;4977693;28;45500;-73
2022/10/01 02:17:53;;;;;;;;;14.00;13.00;;;;;12.43;83.47;99369.69;4977840;28;45450;-73
2022/10/01 02:20:33;;;;;;;;;16.00;15.00;;;;;12.40;83.55;99380.41;4977473;28;45354;-73
2022/10/01 02:23:05;;;;;;;;;14.50;12.50;;;;;12.34;83.92;99374.53;4977598;28;46380;-73
2022/10/01 02:25:39;;;;;;;;;15.00;13.00;;;;;12.26;84.14;99374.00;4977463;28;45600;-73
2022/10/01 02:28:12;;;;;;;;;13.00;12.50;;;;;12.18;84.38;99390.19;4977860;28;45393;-73
2022/10/01 02:30:41;;;;;;;;;13.50;12.25;;;;;12.11;84.31;99391.38;4976017;28;46174;-73
2022/10/01 02:33:12;;;;;;;;;12.50;12.00;;;;;12.06;84.70;99391.59;4976801;28;46431;-73
2022/10/01 02:35:41;;;;;;;;;16.00;14.00;;;;;12.00;84.82;99391.81;4976774;28;45347;-73
2022/10/01 02:38:10;;;;;;;;;15.75;14.00;;;;;11.94;85.10;99385.94;4977385;28;45488;-73
2022/10/01 02:40:41;;;;;;;;;14.25;14.25;;;;;11.88;85.34;99393.19;4981462;28;45445;-73
2022/10/01 02:43:16;;;;;;;;;15.25;15.00;;;;;11.83;85.63;99387.25;4977237;28;46648;-73
2022/10/01 02:45:48;;;;;;;;;16.00;13.50;;;;;11.79;85.88;99392.69;4977313;28;45541;-73
2022/10/01 02:48:17;;;;;;;;;13.00;13.00;;;;;11.75;85.96;99385.78;4977501;28;45315;-73
2022/10/01 02:50:49;;;;;;;;;14.00;14.00;;;;;11.72;86.10;99389.44;4976962;28;45512;-73
2022/10/01 02:53:30;;;;;;;;;11.50;11.50;;;;;11.70;86.43;99391.28;4977318;28;45337;-73
2022/10/01 02:55:58;;;;;;;;;12.00;12.00;;;;;11.68;86.80;99393.13;4977485;28;45382;-73
2022/10/01 02:58:23;;;;;;;;;12.50;12.50;;;;;11.64;86.98;99395.94;4992263;28;45402;-73
2022/10/01 03:00:49;;;;;;;;;15.00;14.00;;;;;11.62;87.46;99401.28;4977016;28;45529;-73
2022/10/01 03:03:14;;;;;;;;;13.75;11.00;;;;;11.61;87.59;99409.25;4975505;28;47545;-73
2022/10/01 03:05:40;;;;;;;;;18.25;14.00;;;;;11.57;87.48;99410.28;4975091;28;45371;-73
2022/10/01 03:08:05;;;;;;;;;11.75;10.25;;;;;11.52;86.63;99414.00;4972258;28;45344;-73
2022/10/01 03:10:31;;;;;;;;;11.00;10.50;;;;;11.46;86.70;99408.94;4957198;28;45536;-73
2022/10/01 03:12:56;;;;;;;;;14.00;13.25;;;;;11.42;86.85;99396.78;4957293;28;46035;-73
2022/10/01 03:15:21;;;;;;;;;14.50;14.50;;;;;11.41;87.13;99399.47;4973211;28;45446;-73
2022/10/01 03:17:53;;;;;;;;;11.75;10.25;;;;;11.38;86.73;99402.25;4976982;28;45425;-73
2022/10/01 03:20:19;;;;;;;;;12.00;11.00;;;;;11.37;86.58;99400.53;4976664;28;45525;-73
2022/10/01 03:22:46;;;;;;;;;12.00;8.00;;;;;11.35;85.63;99405.88;4976563;28;46248;-73
2022/10/01 03:25:12;;;;;;;;;11.50;10.00;;;;;11.36;86.08;99414.66;4976355;28;45423;-73
2022/10/01 03:27:37;;;;;;;;;7.00;6.75;;;;;11.31;86.06;99421.88;4976803;28;45413;-73
2022/10/01 03:30:04;;;;;;;;;11.00;11.00;;;;;11.19;87.76;99426.72;4976574;28;45461;-73
2022/10/01 03:32:30;;;;;;;;;8.00;8.00;;;;;11.10;87.86;99426.16;4976232;28;45443;-73
2022/10/01 03:34:56;;;;;;;;;12.25;11.25;;;;;11.03;87.16;99416.78;4975502;28;45458;-73
2022/10/01 03:37:21;;;;;;;;;9.00;8.00;;;;;10.96;87.93;99416.13;4976407;28;45398;-73
2022/10/01 03:39:46;;;;;;;;;14.00;11.75;;;;;10.94;88.06;99423.25;4978244;28;45249;-73
2022/10/01 03:42:12;;;;;;;;;13.00;13.00;;;;;10.94;88.37;99422.38;4977622;28;45387;-73
2022/10/01 03:44:37;;;;;;;;;8.50;8.50;;;;;10.94;88.39;99422.38;4975312;28;45397;-73
2022/10/01 03:47:02;;;;;;;;;10.00;8.25;;;;;10.98;88.53;99426.63;4976226;28;45544;-73
2022/10/01 03:49:28;;;;;;;;;11.75;10.00;;;;;10.99;88.42;99417.81;4975907;28;45639;-73
2022/10/01 03:51:53;;;;;;;;;9.50;9.00;;;;;11.02;88.56;99415.06;4976070;28;45371;-73
2022/10/01 03:54:19;;;;;;;;;11.25;10.00;;;;;11.03;88.14;99422.06;4976153;28;45375;-73
2022/10/01 03:56:45;;;;;;;;;9.00;9.00;;;;;11.04;88.27;99416.72;4976216;28;45379;-73
2022/10/01 03:59:11;;;;;;;;;10.00;9.00;;;;;11.07;87.99;99407.81;4976055;28;45450;-73
2022/10/01 04:01:37;;;;;;;;;9.25;8.50;;;;;11.10;87.99;99405.94;4975397;28;45974;-73
2022/10/01 04:04:03;;;;;;;;;12.00;10.75;;;;;11.12;88.26;99397.94;4975953;28;45459;-73
2022/10/01 04:06:29;;;;;;;;;9.50;8.00;;;;;11.12;88.10;99401.44;4975766;28;45522;-73
2022/10/01 04:08:54;;;;;;;;;9.00;8.50;;;;;11.13;88.01;99404.94;4976440;28;45430;-73
2022/10/01 04:11:20;;;;;;;;;11.00;10.00;;;;;11.14;88.47;99409.31;4990387;28;46758;-73
2022/10/01 04:13:46;;;;;;;;;10.00;10.00;;;;;11.17;88.44;99415.34;4976105;28;45430;-73
2022/10/01 04:16:11;;;;;;;;;8.00;8.00;;;;;11.17;88.35;99417.13;4975954;28;45439;-72
2022/10/01 04:18:37;;;;;;;;;7.50;7.50;;;;;11.20;88.35;99419.66;4975929;28;45359;-73
2022/10/01 04:21:02;;;;;;;;;12.00;12.00;;;;;11.21;88.38;99425.78;4975070;28;46214;-73
2022/10/01 04:23:28;;;;;;;;;12.25;12.25;;;;;11.22;88.59;99428.38;4975915;28;45360;-73
2022/10/01 04:25:53;;;;;;;;;8.75;7.75;;;;;11.23;88.66;99423.97;4975940;28;45371;-73
2022/10/01 04:28:19;;;;;;;;;13.25;10.00;;;;;11.23;88.81;99430.06;4975819;28;45431;-73
2022/10/01 04:30:45;;;;;;;;;11.75;10.75;;;;;11.24;88.49;99444.13;4975758;28;45608;-73
2022/10/01 04:33:15;;;;;;;;;10.00;10.00;;;;;11.24;89.34;99452.91;4975657;28;45436;-73
2022/10/01 04:35:41;;;;;;;;;10.25;10.00;;;;;11.16;88.54;99460.25;4975346;28;45394;-73
2022/10/01 04:38:15;;;;;;;;;8.75;7.50;;;;;11.06;88.55;99469.44;4975722;28;45527;-73
2022/10/01 04:40:41;;;;;;;;;9.75;8.00;;;;;10.99;88.04;99473.19;4979703;28;45354;-73
2022/10/01 04:43:10;;;;;;;;;8.75;8.75;;;;;10.93;87.61;99466.38;4975693;28;45356;-73
2022/10/01 04:45:36;;;;;;;;;9.00;8.50;;;;;10.90;88.29;99473.53;4975472;28;45506;-73
2022/10/01 04:48:02;;;;;;;;;10.25;9.25;;;;;10.93;88.89;99478.69;4975431;28;45547;-73
2022/10/01 04:50:27;;;;;;;;;11.75;10.50;;;;;10.92;88.15;99477.81;4975106;28;46677;-73
2022/10/01 04:52:53;;;;;;;;;8.25;6.50;;;;;10.94;88.24;99480.41;4973873;28;45395;-73
2022/10/01 04:55:20;;;;;;;;;10.75;10.00;;;;;10.95;88.79;99487.41;4975109;28;45398;-73
2022/10/01 04:57:45;;;;;;;;;10.50;9.75;;;;;10.97;88.55;99488.22;4975447;28;45363;-73
2022/10/01 05:00:14;;;;;;;;;13.75;11.75;;;;;11.00;88.49;99493.41;4975329;28;46393;-73
2022/10/01 05:02:43;;;;;;;;;10.25;9.00;;;;;11.01;88.44;99488.06;4977983;28;45227;-73
2022/10/01 05:05:08;;;;;;;;;14.00;11.00;;;;;11.04;88.61;99493.25;4974799;28;45395;-73
2022/10/01 05:07:35;;;;;;;;;10.00;10.00;;;;;11.09;88.41;99501.81;4975588;28;45418;-73
2022/10/01 05:10:00;;;;;;;;;9.00;9.00;;;;;11.12;88.57;99501.72;4975393;28;46382;-73
2022/10/01 05:12:27;;;;;;;;;10.75;10.50;;;;;11.16;88.46;99507.75;4975212;28;45393;-73
2022/10/01 05:14:53;;;;;;;;;12.75;12.75;;;;;11.19;88.52;99507.66;4968137;28;45395;-73
2022/10/01 05:17:19;;;;;;;;;11.25;10.75;;;;;11.23;88.22;99508.41;4970456;28;45245;-73
2022/10/01 05:19:45;;;;;;;;;10.00;10.00;;;;;11.26;88.32;99505.63;4955230;28;45584;-73
2022/10/01 05:22:11;;;;;;;;;9.25;9.00;;;;;11.29;88.44;99518.72;4954283;28;45452;-72
2022/10/01 05:24:38;;;;;;;;;12.75;10.00;;;;;11.33;88.54;99515.06;4955467;28;45464;-73
2022/10/01 05:27:05;;;;;;;;;9.00;8.25;;;;;11.37;88.54;99521.94;4954967;28;45421;-73
2022/10/01 05:29:32;;;;;;;;;9.25;8.75;;;;;11.40;89.10;99527.97;4954943;28;45437;-73
2022/10/01 05:31:57;;;;;;;;;10.00;10.00;;;;;11.42;88.96;99520.84;4969816;28;45820;-73
2022/10/01 05:34:23;;;;;;;;;8.50;8.50;;;;;11.43;88.86;99535.78;4953470;28;45413;-73
2022/10/01 05:36:48;;;;;;;;;10.00;10.00;;;;;11.41;88.40;99536.75;4953361;28;45287;-73
2022/10/01 05:39:13;;;;;;;;;9.25;9.00;;;;;11.38;88.33;99536.88;4961379;28;46114;-73
2022/10/01 05:41:39;;;;;;;;;11.50;10.50;;;;;11.36;88.27;99536.06;4979623;28;45348;-73
2022/10/01 05:44:06;;;;;;;;;11.50;9.00;;;;;11.34;88.34;99536.13;4974570;28;45438;-73
2022/10/01 05:46:32;;;;;;;;;10.50;10.00;;;;;11.33;88.31;99547.59;4973811;28;45561;-73
2022/10/01 05:48:57;;;;;;;;;10.00;10.00;;;;;11.36;88.22;99544.00;4969911;28;47147;-73
2022/10/01 05:51:24;;;;;;;;;15.00;13.50;;;;;11.38;88.45;99544.78;4967467;28;45392;-73
2022/10/01 05:53:52;;;;;;;;;9.25;8.75;;;;;11.43;88.37;99542.81;4989648;28;45327;-73
2022/10/01 05:56:17;;;;;;;;;10.25;8.25;;;;;11.47;88.25;99549.72;4973621;28;45463;-73
2022/10/01 05:58:43;;;;;;;;;7.00;6.00;;;;;11.52;87.14;99555.72;4966790;28;46237;-73
2022/10/01 06:01:08;;;;;;;;;8.25;7.75;;;;;11.57;87.00;99558.16;4967851;28;45382;-73
2022/10/01 06:03:34;;;;;;;;;7.75;7.25;;;;;11.60;86.68;99568.59;4974530;28;45276;-73
2022/10/01 06:06:00;;;;;;;;;8.00;8.00;;;;;11.63;86.76;99564.09;4988419;28;45774;-73
2022/10/01 06:08:27;;;;;;;;;8.00;7.50;;;;;11.68;86.56;99572.69;4976668;28;45472;-73
2022/10/01 06:10:58;;;;;;;;;11.00;9.50;;;;;11.73;86.70;99576.00;4979370;28;45456;-73
2022/10/01 06:13:25;;;;;;;;;8.25;8.00;;;;;11.79;86.43;99575.81;4985091;28;45407;-76
2022/10/01 06:15:52;;;;;;;;;10.75;9.00;;;;;11.88;86.34;99579.91;4976697;28;45325;-60
2022/10/01 06:18:18;;;;;;;;;9.00;8.50;;;;;11.97;86.15;99586.63;4977157;28;45423;-61
2022/10/01 06:20:43;;;;;;;;;9.00;8.25;;;;;12.05;86.11;99589.84;4976270;28;45374;-61
2022/10/01 06:23:11;;;;;;;;;13.25;10.00;;;;;12.11;85.85;99589.59;4976842;28;45530;-61
2022/10/01 06:25:38;;;;;;;;;12.50;10.00;;;;;12.18;85.83;99581.38;4976470;28;45477;-61
2022/10/01 06:28:07;;;;;;;;;15.50;13.25;;;;;12.24;85.71;99577.59;4977048;28;46395;-61
2022/10/01 06:30:35;;;;;;;;;10.50;9.75;;;;;12.30;85.57;99581.78;4976579;28;45520;-61
2022/10/01 06:33:02;;;;;;;;;12.25;12.25;;;;;12.33;85.39;99579.91;4967666;28;45380;-61
2022/10/01 06:35:28;;;;;;;;;11.75;11.75;;;;;12.39;85.58;99576.16;4956618;28;45554;-61
2022/10/01 06:37:53;;;;;;;;;12.00;12.00;;;;;12.40;84.96;99573.44;4957377;28;45543;-61
2022/10/01 06:40:18;;;;;;;;;11.50;9.00;;;;;12.43;85.16;99578.59;4966582;28;45415;-60
2022/10/01 06:42:48;;;;;;;;;11.25;11.25;;;;;12.47;85.30;99585.50;4967599;28;45447;-60
2022/10/01 06:45:16;;;;;;;;;13.00;11.25;;;;;12.51;85.38;99576.50;4959600;28;45542;-61
2022/10/01 06:47:42;;;;;;;;;16.50;14.75;;;;;12.58;85.42;99569.16;4976442;28;45418;-62
2022/10/01 06:50:08;;;;;;;;;10.00;10.00;;;;;12.62;85.55;99560.19;4975818;28;45553;-66
2022/10/01 06:52:48;;;;;;;;;13.75;12.00;;;;;12.65;85.24;99556.56;4974909;28;45514;-61
2022/10/01 06:55:18;;;;;;;;;15.25;14.00;;;;;12.68;85.61;99552.00;4970737;28;45546;-61
2022/10/01 06:57:45;;;;;;;;;13.50;13.25;;;;;12.73;84.78;99550.06;4962018;28;46464;-62
2022/10/01 07:00:11;;;;;;;;;16.50;13.50;;;;;12.74;85.20;99546.44;4977095;28;45343;-61
2022/10/01 07:02:38;;;;;;;;;14.50;13.25;;;;;12.81;84.99;99547.94;4983703;28;45534;-62
2022/10/01 07:05:04;;;;;;;;;14.75;13.75;;;;;12.85;84.56;99546.00;4956818;28;45611;-63
2022/10/01 07:07:35;;;;;;;;;15.50;13.75;;;;;12.89;84.43;99548.47;4974283;28;45604;-69
2022/10/01 07:10:03;;;;;;;;;14.50;13.75;;;;;12.89;84.21;99558.19;4976502;28;45426;-67
2022/10/01 07:12:28;;;;;;;;;14.25;12.00;;;;;12.89;84.36;99550.25;4976186;28;45510;-75
2022/10/01 07:14:53;;;;;;;;;12.25;12.25;;;;;12.91;83.62;99558.97;4969473;28;45451;-64
2022/10/01 07:17:20;;;;;;;;;11.00;10.00;;;;;12.91;82.83;99561.63;4959836;28;45929;-64
2022/10/01 07:19:45;;;;;;;;;14.75;11.25;;;;;12.92;82.95;99560.69;4956093;28;45493;-64
2022/10/01 07:22:11;;;;;;;;;16.25;15.00;;;;;12.94;82.99;99575.59;4956022;28;45437;-61
2022/10/01 07:24:36;;;;;;;;;12.25;12.25;;;;;12.97;82.66;99589.59;4962482;28;45397;-61
2022/10/01 07:27:02;;;;;;;;;13.50;13.25;;;;;12.96;82.69;99586.09;4962190;28;46353;-62
2022/10/01 07:29:28;;;;;;;;;13.25;12.50;;;;;12.94;83.01;99583.53;4968829;28;45944;-62
2022/10/01 07:31:58;;;;;;;;;8.50;6.50;;;;;12.94;82.98;99588.81;4973131;28;45552;-62
2022/10/01 07:34:24;;;;;;;;;12.25;12.25;;;;;12.93;83.18;99595.03;4969040;28;45359;-62
2022/10/01 07:36:50;;;;;;;;;15.25;11.50;;;;;12.92;83.12;99603.88;4973132;28;46657;-62
2022/10/01 07:39:15;;;;;;;;;17.25;14.00;;;;;12.95;83.42;99616.13;4975394;28;45469;-62
2022/10/01 07:41:42;;;;;;;;;12.75;12.00;;;;;12.98;83.39;99612.50;4972881;28;45560;-62
2022/10/01 07:44:08;;;;;;;;;14.25;12.25;;;;;13.02;83.52;99616.75;4974694;28;45554;-62
2022/10/01 07:46:34;;;;;;;;;12.75;12.75;;;;;13.08;82.65;99627.94;4973713;28;46013;-59
2022/10/01 07:48:59;;;;;;;;;15.75;14.75;;;;;13.15;82.81;99616.19;4974366;28;45455;-62
2022/10/01 07:51:25;;;;;;;;;17.00;14.25;;;;;13.24;82.93;99612.28;4972814;28;46053;-62
2022/10/01 07:53:51;;;;;;;;;15.00;14.00;;;;;13.33;82.30;99606.59;4973577;28;45490;-62
2022/10/01 07:56:16;;;;;;;;;12.25;10.25;;;;;13.40;81.97;99616.03;4969163;28;45424;-62
2022/10/01 07:58:42;;;;;;;;;22.25;18.50;;;;;13.47;81.72;99619.25;4974679;28;45442;-63
2022/10/01 08:01:08;;;;;;;;;26.25;24.50;;;;;13.50;81.79;99616.47;4973543;28;45464;-63
2022/10/01 08:03:34;;;;;;;;;22.25;19.00;;;;;13.53;81.47;99625.13;4974552;28;45538;-63
2022/10/01 08:06:02;;;;;;;;;13.25;12.25;;;;;13.58;82.04;99615.19;4988171;28;45700;-63
2022/10/01 08:08:30;;;;;;;;;22.50;21.75;;;;;13.61;82.14;99628.28;4974499;28;45398;-62
2022/10/01 08:10:55;;;;;;;;;18.00;17.00;;;;;13.66;81.45;99637.84;4974296;28;45494;-62
2022/10/01 08:13:23;;;;;;;;;28.75;24.75;;;;;13.70;81.19;99642.06;4973066;28;45415;-63
2022/10/01 08:15:52;;;;;;;;;20.00;20.00;;;;;13.71;80.83;99638.50;4972179;28;46212;-63
2022/10/01 08:18:18;;;;;;;;;18.75;18.00;;;;;13.75;80.92;99640.91;4974314;28;45652;-63
2022/10/01 08:20:44;;;;;;;;;18.00;15.75;;;;;13.83;81.09;99641.44;4972713;28;45494;-63
2022/10/01 08:23:13;;;;;;;;;21.00;19.00;;;;;13.93;80.46;99649.84;4973052;28;45443;-64
2022/10/01 08:25:40;;;;;;;;;21.25;17.75;;;;;14.03;79.98;99647.66;4973615;28;46313;-63
2022/10/01 08:28:06;;;;;;;;;16.00;14.25;;;;;14.11;78.77;99650.78;4978057;28;45523;-64
2022/10/01 08:30:32;;;;;;;;;17.00;15.75;;;;;14.18;78.18;99654.91;4970513;28;45320;-63
2022/10/01 08:32:59;;;;;;;;;10.50;9.00;;;;;14.23;77.35;99653.75;4992078;28;45314;-64
2022/10/01 08:35:26;;;;;;;;;13.50;10.75;;;;;14.30;77.71;99646.34;4972713;28;45885;-64
2022/10/01 08:37:52;;;;;;;;;14.00;13.00;;;;;14.37;77.37;99649.59;4978534;28;45490;-63
2022/10/01 08:40:20;;;;;;;;;17.25;16.50;;;;;14.43;77.43;99652.84;4962026;28;45601;-63
2022/10/01 08:43:13;;;;;;;;;13.75;13.75;;;;;14.49;77.02;99638.44;4971691;28;45423;-63
2022/10/01 08:45:44;;;;;;;;;20.50;17.25;;;;;14.57;77.09;99642.44;4973188;28;45418;-64
2022/10/01 08:48:29;;;;;;;;;17.50;14.50;;;;;14.71;76.88;99652.41;4973680;28;45438;-63
2022/10/01 08:51:03;;;;;;;;;17.25;17.25;;;;;14.81;76.29;99650.13;4972594;28;45477;-63
2022/10/01 08:53:36;;;;;;;;;18.25;16.25;;;;;14.88;75.91;99656.88;4973103;28;45518;-63
2022/10/01 08:56:03;;;;;;;;;19.25;16.75;;;;;14.91;75.97;99659.38;4972690;28;45504;-64
2022/10/01 08:58:42;;;;;;;;;22.25;21.75;;;;;14.96;75.77;99667.97;4973787;28;45487;-63
2022/10/01 09:01:10;;;;;;;;;16.75;16.75;;;;;14.99;76.37;99671.34;4973546;28;45524;-64
2022/10/01 09:03:36;;;;;;;;;29.00;26.00;;;;;15.02;76.80;99675.66;4974145;28;45613;-63
2022/10/01 09:06:04;;;;;;;;;29.50;24.50;;;;;15.04;76.52;99683.53;4971426;28;45692;-62
2022/10/01 09:08:44;;;;;;;;;23.00;21.25;;;;;15.01;77.04;99682.75;4973892;28;45381;-64
2022/10/01 09:11:22;;;;;;;;;22.25;20.00;;;;;15.01;77.31;99685.41;4973322;28;45461;-63
2022/10/01 09:14:30;;;;;;;;;26.00;23.00;;;;;15.07;78.04;99688.69;4974281;28;45592;-63
2022/10/01 09:17:01;;;;;;;;;16.25;16.25;;;;;15.12;77.77;99686.66;4970157;28;46241;-63
2022/10/01 09:19:42;;;;;;;;;18.50;16.75;;;;;15.11;77.19;99692.91;4973237;28;45422;-63
2022/10/01 09:22:24;;;;;;;;;19.75;19.00;;;;;15.10;77.86;99684.06;4972391;28;45521;-64
2022/10/01 09:25:23;;;;;;;;;18.50;17.75;;;;;15.13;78.04;99699.00;4968391;28;45310;-64
2022/10/01 09:28:06;;;;;;;;;28.00;26.75;;;;;15.16;77.94;99709.47;4973662;28;46106;-63
2022/10/01 09:30:32;;;;;;;;;25.00;21.75;;;;;15.15;78.16;99708.63;4973407;28;45467;-63
2022/10/01 09:33:14;;;;;;;;;30.25;27.25;;;;;15.11;78.30;99712.34;4973971;28;45489;-63
2022/10/01 09:35:53;;;;;;;;;34.50;29.00;;;;;15.13;78.77;99721.09;4972745;28;45675;-63
2022/10/01 09:38:32;;;;;;;;;26.75;23.75;;;;;15.14;78.63;99721.97;4978332;28;47925;-63
2022/10/01 09:40:58;;;;;;;;;27.00;26.75;;;;;15.14;78.50;99711.34;4971689;28;45465;-63
2022/10/01 09:43:30;;;;;;;;;26.00;22.75;;;;;15.12;78.79;99713.22;4975145;28;45332;-63
2022/10/01 09:45:56;;;;;;;;;35.00;31.33;;;;;15.11;78.60;99714.16;4976267;28;45465;-63
2022/10/01 09:48:39;;;;;;;;;31.25;27.50;;;;;15.09;78.66;99714.22;4976479;28;45535;-63
2022/10/01 09:51:23;;;;;;;;;25.50;23.50;;;;;15.03;78.38;99714.53;4975844;28;45394;-63
2022/10/01 09:53:58;;;;;;;;;22.75;20.00;;;;;15.01;78.99;99711.97;4976786;28;45449;-63
2022/10/01 09:56:29;;;;;;;;;23.25;19.75;;;;;14.97;78.87;99715.69;4976111;28;45474;-63
2022/10/01 09:59:04;;;;;;;;;20.75;19.00;;;;;14.98;79.47;99717.41;4977106;28;45359;-63
2022/10/01 10:01:43;;;;;;;;;20.50;18.50;;;;;14.98;79.53;99716.53;4975616;28;45426;-63
2022/10/01 10:04:08;;;;;;;;;20.50;20.25;;;;;14.99;79.95;99713.81;4976061;28;45521;-62
2022/10/01 10:06:34;;;;;;;;;24.50;22.25;;;;;15.05;79.99;99714.47;4976202;28;45358;-63
2022/10/01 10:09:01;;;;;;;;;28.25;24.75;;;;;15.08;79.82;99716.97;4977045;28;45465;-63
2022/10/01 10:11:29;;;;;;;;;21.75;18.75;;;;;15.09;78.86;99716.00;4975767;28;45411;-63
2022/10/01 10:14:02;;;;;;;;;22.25;19.50;;;;;15.11;78.92;99727.44;4975309;28;45466;-63
2022/10/01 10:16:33;;;;;;;;;26.75;24.50;;;;;15.14;78.84;99724.63;4967603;28;45375;-63
2022/10/01 10:19:10;;;;;;;;;25.00;20.25;;;;;15.16;78.38;99736.91;4975685;28;45554;-63
2022/10/01 10:21:36;;;;;;;;;19.00;18.75;;;;;15.15;78.39;99734.31;4975090;28;45704;-63
2022/10/01 10:24:20;;;;;;;;;40.33;34.00;;;;;15.15;78.75;99752.91;4976648;28;45457;-63
2022/10/01 10:26:52;;;;;;;;;28.00;28.00;;;;;15.16;78.12;99751.97;4970119;28;45517;-63
2022/10/01 10:29:33;;;;;;;;;28.00;26.50;;;;;15.21;77.55;99757.94;4974167;28;47402;-63
2022/10/01 10:32:09;;;;;;;;;24.75;22.25;;;;;15.21;77.75;99764.09;4974937;28;45710;-63
2022/10/01 10:34:39;;;;;;;;;33.67;32.00;;;;;15.22;78.44;99763.16;4976159;28;45368;-63
2022/10/01 10:37:13;;;;;;;;;21.50;20.25;;;;;15.25;76.96;99770.09;4975504;28;45540;-63
2022/10/01 10:39:41;;;;;;;;;22.50;22.00;;;;;15.25;76.90;99776.28;4979789;28;45946;-63
2022/10/01 10:42:07;;;;;;;;;24.25;22.50;;;;;15.25;76.95;99773.63;4975016;28;45410;-63
2022/10/01 10:44:37;;;;;;;;;21.00;19.00;;;;;15.27;77.00;99773.56;4976203;28;45581;-63
2022/10/01 10:47:13;;;;;;;;;22.25;22.25;;;;;15.27;77.02;99771.75;4974338;28;45494;-61
2022/10/01 10:49:59;;;;;;;;;23.00;17.75;;;;;15.26;76.66;99779.78;4975348;28;45560;-63
2022/10/01 10:52:35;;;;;;;;;21.50;21.00;;;;;15.25;76.62;99781.59;4974162;28;45495;-64
2022/10/01 10:55:24;;;;;;;;;21.25;19.50;;;;;15.26;77.61;99795.75;4976407;28;45440;-63
2022/10/01 10:57:51;;;;;;;;;24.25;21.50;;;;;15.24;77.77;99797.63;4985810;28;45698;-64
2022/10/01 11:00:23;;;;;;;;;16.00;14.00;;;;;15.19;78.11;99797.00;4975087;28;46339;-63
2022/10/01 11:03:06;;;;;;;;;18.50;16.75;;;;;15.16;78.22;99799.78;4974893;28;45538;-63
2022/10/01 11:05:40;;;;;;;;;24.00;20.25;;;;;15.18;78.78;99805.88;4974831;28;45394;-63
2022/10/01 11:08:10;;;;;;;;;24.00;22.75;;;;;15.23;79.12;99806.53;4975579;28;45493;-63
2022/10/01 11:10:55;;;;;;;;;23.25;21.25;;;;;15.27;79.17;99800.13;4989645;28;47146;-63
2022/10/01 11:13:58;;;;;;;;;22.50;21.00;;;;;15.29;78.65;99801.78;4973263;28;45495;-64
2022/10/01 11:16:23;;;;;;;;;21.50;21.50;;;;;15.32;78.79;99803.41;4974006;28;45382;-63
2022/10/01 11:19:01;;;;;;;;;25.67;24.00;;;;;15.34;78.63;99806.88;4975537;28;45329;-63
2022/10/01 11:21:40;;;;;;;;;26.00;25.00;;;;;15.36;79.27;99807.66;4973902;28;48631;-63
2022/10/01 11:24:24;;;;;;;;;18.00;17.50;;;;;15.36;79.28;99813.84;4975313;28;45392;-63
2022/10/01 11:27:35;;;;;;;;;24.00;21.50;;;;;15.34;78.96;99810.38;4973256;28;45509;-63
2022/10/01 11:30:00;;;;;;;;;23.75;20.00;;;;;15.34;79.27;99805.06;4963432;28;45456;-63
2022/10/01 11:32:50;;;;;;;;;21.25;21.25;;;;;15.36;80.10;99802.34;4974312;28;46116;-63